createdAt,value
2023-01-10T00:02:47.441Z,87.09
2023-01-10T00:06:09.329Z,86.86
2023-01-10T00:09:24.393Z,87.05
2023-01-10T00:13:04.374Z,86.92
2023-01-10T00:16:19.467Z,88.34
2023-01-10T00:19:41.366Z,87.16
2023-01-10T00:22:56.475Z,87.24
2023-01-10T00:26:18.294Z,86.69
2023-01-10T00:29:41.333Z,87.35
2023-01-10T00:32:56.871Z,88.35
2023-01-10T00:36:19.345Z,87.02
2023-01-10T00:39:41.306Z,87.76
2023-01-10T00:43:21.280Z,87.06
2023-01-10T00:46:43.312Z,87.16
2023-01-10T00:50:05.285Z,87.70
2023-01-10T00:53:27.318Z,86.93
2023-01-10T00:56:42.487Z,87.94
2023-01-10T01:00:04.272Z,87.27
2023-01-10T01:03:26.323Z,86.23
2023-01-10T01:06:50.312Z,87.07
2023-01-10T01:10:23.919Z,88.23
2023-01-10T01:13:45.307Z,87.32
2023-01-10T01:17:00.379Z,88.21
2023-01-10T01:20:22.261Z,88.63
2023-01-10T01:23:44.334Z,88.66
2023-01-10T01:27:06.245Z,87.58
2023-01-10T01:30:28.319Z,87.91
2023-01-10T01:33:50.243Z,87.44
2023-01-10T01:37:12.326Z,89.05
2023-01-10T01:40:34.242Z,89.03
2023-01-10T01:44:12.250Z,89.27
2023-01-10T01:47:27.878Z,89.78
2023-01-10T01:50:57.282Z,89.71
2023-01-10T01:54:13.458Z,89.52
2023-01-10T01:57:38.237Z,89.69
2023-01-10T02:01:00.301Z,89.26
2023-01-10T02:04:20.371Z,88.16
2023-01-10T02:07:47.261Z,88.23
2023-01-10T02:11:06.349Z,88.07
2023-01-10T02:14:30.308Z,87.98
2023-01-10T02:17:52.292Z,89.03
2023-01-10T02:21:26.221Z,88.09
2023-01-10T02:24:58.320Z,87.58
2023-01-10T02:28:31.928Z,88.45
2023-01-10T02:32:05.235Z,88.50
2023-01-10T02:35:27.259Z,87.66
2023-01-10T02:38:49.200Z,88.52
2023-01-10T02:42:16.220Z,88.26
2023-01-10T02:45:54.331Z,87.12
2023-01-10T02:49:16.228Z,87.09
2023-01-10T02:52:44.259Z,86.59
2023-01-10T02:56:06.235Z,88.54
2023-01-10T02:59:39.252Z,87.57
2023-01-10T03:03:14.250Z,87.23
2023-01-10T03:06:41.336Z,87.76
2023-01-10T03:10:08.191Z,87.50
2023-01-10T03:13:35.225Z,89.61
2023-01-10T03:17:01.842Z,88.86
2023-01-10T03:20:17.328Z,88.20
2023-01-10T03:23:40.213Z,88.01
2023-01-10T03:27:10.257Z,88.37
2023-01-10T03:30:53.231Z,88.28
2023-01-10T03:34:09.294Z,87.99
2023-01-10T03:37:46.191Z,88.39
2023-01-10T03:41:05.274Z,88.85
2023-01-10T03:44:52.175Z,89.09
2023-01-10T03:48:09.310Z,89.07
2023-01-10T03:51:31.187Z,89.90
2023-01-10T03:54:55.194Z,89.61
2023-01-10T03:58:10.372Z,88.83
2023-01-10T04:01:32.306Z,89.79
2023-01-10T04:04:54.191Z,88.58
2023-01-10T04:08:09.283Z,88.74
2023-01-10T04:11:31.234Z,87.67
2023-01-10T04:14:53.144Z,88.98
2023-01-10T04:18:08.418Z,88.29
2023-01-10T04:21:30.122Z,87.44
2023-01-10T04:24:47.107Z,88.56
2023-01-10T04:28:09.175Z,89.64
2023-01-10T04:31:31.233Z,89.70
2023-01-10T04:34:53.167Z,89.80
2023-01-10T04:38:08.351Z,88.56
2023-01-10T04:41:30.163Z,88.41
2023-01-10T04:44:52.167Z,88.16
2023-01-10T04:48:14.178Z,87.65
2023-01-10T04:51:29.371Z,87.87
2023-01-10T04:54:51.191Z,88.65
2023-01-10T04:58:13.149Z,89.02
2023-01-10T05:01:36.106Z,87.91
2023-01-10T05:04:58.168Z,88.55
2023-01-10T05:08:20.116Z,87.94
2023-01-10T05:11:42.159Z,87.94
2023-01-10T05:14:57.243Z,87.18
2023-01-10T05:18:19.164Z,86.42
2023-01-10T05:21:41.177Z,86.15
2023-01-10T05:24:56.347Z,87.51
2023-01-10T05:28:18.121Z,86.76
2023-01-10T05:31:40.142Z,87.97
2023-01-10T05:34:55.211Z,88.13
2023-01-10T05:38:17.105Z,87.45
2023-01-10T05:41:39.121Z,88.14
2023-01-10T05:45:01.131Z,88.42
2023-01-10T05:48:23.195Z,88.23
2023-01-10T05:51:38.428Z,88.17
2023-01-10T05:55:00.126Z,87.71
2023-01-10T05:58:15.440Z,88.51
2023-01-10T06:01:37.089Z,89.37
2023-01-10T06:04:59.105Z,88.29
2023-01-10T06:08:14.251Z,87.75
2023-01-10T06:11:37.084Z,87.25
2023-01-10T06:14:59.160Z,86.63
2023-01-10T06:18:14.702Z,86.82
2023-01-10T06:21:36.134Z,86.79
2023-01-10T06:24:58.077Z,86.24
2023-01-10T06:28:13.177Z,87.36
2023-01-10T06:31:35.153Z,87.86
2023-01-10T06:34:57.148Z,87.68
2023-01-10T06:38:12.332Z,88.30
2023-01-10T06:41:34.093Z,88.84
2023-01-10T06:44:56.128Z,87.98
2023-01-10T06:48:18.059Z,88.31
2023-01-10T06:51:40.090Z,89.20
2023-01-10T06:54:55.206Z,88.60
2023-01-10T06:58:17.046Z,90.08
2023-01-10T07:01:39.285Z,89.36
2023-01-10T07:04:54.265Z,88.66
2023-01-10T07:08:16.081Z,89.88
2023-01-10T07:11:39.056Z,89.07
2023-01-10T07:14:54.148Z,88.39
2023-01-10T07:18:16.045Z,89.67
2023-01-10T07:21:38.088Z,89.31
2023-01-10T07:25:01.033Z,89.12
2023-01-10T07:28:23.058Z,88.60
2023-01-10T07:31:45.042Z,88.39
2023-01-10T07:35:07.033Z,88.70
2023-01-10T07:38:29.098Z,88.59
2023-01-10T07:41:51.067Z,87.83
2023-01-10T07:45:15.033Z,87.78
2023-01-10T07:48:37.049Z,87.92
2023-01-10T07:51:52.310Z,89.33
2023-01-10T07:55:14.075Z,88.97
2023-01-10T07:58:29.843Z,88.84
2023-01-10T08:01:51.009Z,88.98
2023-01-10T08:05:06.326Z,89.58
2023-01-10T08:08:28.040Z,89.55
2023-01-10T08:11:43.398Z,90.55
2023-01-10T08:15:05.036Z,89.76
2023-01-10T08:18:20.924Z,88.94
2023-01-10T08:21:43.043Z,88.53
2023-01-10T08:24:58.300Z,88.86
2023-01-10T08:28:20.072Z,87.82
2023-01-10T08:31:35.278Z,88.51
2023-01-10T08:34:56.999Z,87.96
2023-01-10T08:38:19.037Z,87.43
2023-01-10T08:41:34.188Z,87.96
2023-01-10T08:44:56.007Z,87.73
2023-01-10T08:48:12.140Z,88.56
2023-01-10T08:51:34.015Z,88.11
2023-01-10T08:54:57.005Z,88.25
2023-01-10T08:58:12.620Z,88.95
2023-01-10T09:01:34.061Z,88.78
2023-01-10T09:04:56.062Z,89.49
2023-01-10T09:08:11.132Z,88.84
2023-01-10T09:11:33.005Z,89.99
2023-01-10T09:14:48.457Z,90.07
2023-01-10T09:18:14.015Z,89.67
2023-01-10T09:21:35.989Z,89.66
2023-01-10T09:24:51.247Z,89.13
2023-01-10T09:28:13.019Z,89.64
2023-01-10T09:31:28.321Z,89.16
2023-01-10T09:34:49.993Z,89.05
2023-01-10T09:38:06.352Z,89.88
2023-01-10T09:41:30.955Z,90.06
2023-01-10T09:45:08.024Z,90.58
2023-01-10T09:48:31.023Z,89.82
2023-01-10T09:51:54.983Z,88.99
2023-01-10T09:55:27.925Z,88.87
2023-01-10T09:58:49.977Z,88.63
2023-01-10T10:02:17.982Z,89.11
2023-01-10T10:05:33.245Z,88.49
2023-01-10T10:08:55.941Z,89.46
2023-01-10T10:12:35.953Z,89.38
2023-01-10T10:16:09.023Z,89.98
2023-01-10T10:19:45.924Z,89.10
2023-01-10T10:23:13.980Z,89.14
2023-01-10T10:26:29.067Z,89.20
2023-01-10T10:29:53.988Z,89.41
2023-01-10T10:33:34.909Z,89.52
2023-01-10T10:37:02.988Z,89.49
2023-01-10T10:40:21.102Z,89.20
2023-01-10T10:43:45.990Z,88.52
2023-01-10T10:47:01.009Z,89.13
2023-01-10T10:50:30.951Z,90.21
2023-01-10T10:53:53.939Z,88.95
2023-01-10T10:57:17.952Z,88.68
2023-01-10T11:00:33.071Z,88.76
2023-01-10T11:03:54.928Z,89.70
2023-01-10T11:07:10.032Z,89.77
2023-01-10T11:10:44.920Z,88.41
2023-01-10T11:14:07.081Z,88.91
2023-01-10T11:17:29.961Z,88.77
2023-01-10T11:20:59.945Z,89.24
2023-01-10T11:24:30.960Z,89.82
2023-01-10T11:28:12.069Z,91.68
2023-01-10T11:31:37.022Z,90.59
2023-01-10T11:35:21.905Z,90.67
2023-01-10T11:38:43.873Z,89.43
2023-01-10T11:42:00.005Z,89.25
2023-01-10T11:45:24.898Z,88.40
2023-01-10T11:49:06.247Z,88.16
2023-01-10T11:52:28.865Z,88.44
2023-01-10T11:55:51.873Z,88.19
2023-01-10T11:59:18.906Z,88.21
2023-01-10T12:02:44.892Z,88.64
2023-01-10T12:06:02.137Z,88.35
2023-01-10T12:09:43.900Z,88.25
2023-01-10T12:13:06.902Z,88.71
2023-01-10T12:16:29.044Z,89.07
2023-01-10T12:19:50.881Z,88.90
2023-01-10T12:23:11.981Z,89.55
2023-01-10T12:26:35.907Z,89.18
2023-01-10T12:29:54.003Z,90.23
2023-01-10T12:33:26.920Z,90.14
2023-01-10T12:37:02.957Z,89.34
2023-01-10T12:40:36.866Z,89.03
2023-01-10T12:44:16.855Z,88.98
2023-01-10T12:47:34.899Z,88.64
2023-01-10T12:51:04.883Z,88.87
2023-01-10T12:54:22.460Z,89.22
2023-01-10T12:57:52.118Z,88.55
2023-01-10T13:01:14.953Z,88.40
2023-01-10T13:04:38.891Z,88.27
2023-01-10T13:08:02.987Z,88.61
2023-01-10T13:11:27.837Z,89.06
2023-01-10T13:14:54.882Z,90.06
2023-01-10T13:18:23.999Z,88.42
2023-01-10T13:21:46.879Z,88.40
2023-01-10T13:25:15.839Z,87.89
2023-01-10T13:28:39.836Z,88.14
2023-01-10T13:31:57.799Z,88.23
2023-01-10T13:35:23.847Z,88.34
2023-01-10T13:39:00.876Z,89.36
2023-01-10T13:42:54.543Z,88.59
2023-01-10T13:46:30.918Z,88.58
2023-01-10T13:49:46.039Z,89.89
2023-01-10T13:53:13.849Z,88.90
2023-01-10T13:56:36.836Z,90.03
2023-01-10T14:00:32.789Z,88.62
2023-01-10T14:03:54.830Z,89.40
2023-01-10T14:07:12.914Z,89.87
2023-01-10T14:10:36.822Z,88.35
2023-01-10T14:14:06.860Z,88.58
2023-01-10T14:17:28.848Z,88.93
2023-01-10T14:20:50.771Z,88.93
2023-01-10T14:24:06.433Z,89.41
2023-01-10T14:27:28.812Z,88.66
2023-01-10T14:30:45.436Z,88.17
2023-01-10T14:34:09.816Z,86.95
2023-01-10T14:37:34.825Z,86.98
2023-01-10T14:41:01.801Z,87.22
2023-01-10T14:44:27.350Z,86.67
2023-01-10T14:47:48.754Z,87.25
2023-01-10T14:51:27.759Z,87.61
2023-01-10T14:54:49.779Z,87.20
2023-01-10T14:58:05.076Z,86.82
2023-01-10T15:01:29.944Z,86.93
2023-01-10T15:04:55.989Z,86.81
2023-01-10T15:08:38.815Z,87.19
2023-01-10T15:12:01.808Z,87.07
2023-01-10T15:15:21.891Z,87.42
2023-01-10T15:18:49.779Z,87.04
2023-01-10T15:22:11.791Z,86.79
2023-01-10T15:25:38.020Z,86.41
2023-01-10T15:29:17.855Z,86.10
2023-01-10T15:32:34.815Z,86.74
2023-01-10T15:35:56.777Z,86.36
2023-01-10T15:39:35.327Z,86.82
2023-01-10T15:42:56.760Z,86.37
2023-01-10T15:46:32.850Z,85.89
2023-01-10T15:49:58.907Z,85.57
2023-01-10T15:53:20.755Z,85.30
2023-01-10T15:56:49.762Z,85.04
2023-01-10T16:00:11.755Z,85.60
2023-01-10T16:03:46.977Z,86.26
2023-01-10T16:07:18.771Z,86.03
2023-01-10T16:10:37.093Z,85.08
2023-01-10T16:13:58.797Z,86.05
2023-01-10T16:17:21.084Z,84.16
2023-01-10T16:20:45.283Z,85.65
2023-01-10T16:24:10.059Z,85.26
2023-01-10T16:27:32.760Z,85.40
2023-01-10T16:30:54.712Z,85.16
2023-01-10T16:34:10.013Z,84.10
2023-01-10T16:37:31.722Z,84.06
2023-01-10T16:40:48.388Z,84.18
2023-01-10T16:44:09.761Z,83.70
2023-01-10T16:47:24.948Z,83.89
2023-01-10T16:50:46.734Z,83.15
2023-01-10T16:54:01.997Z,83.55
2023-01-10T16:57:24.723Z,84.00
2023-01-10T17:00:47.777Z,84.88
2023-01-10T17:04:02.942Z,84.69
2023-01-10T17:07:24.709Z,85.03
2023-01-10T17:10:48.716Z,84.71
2023-01-10T17:14:11.735Z,84.41
2023-01-10T17:17:29.100Z,84.83
2023-01-10T17:20:51.701Z,83.83
2023-01-10T17:24:13.698Z,84.87
2023-01-10T17:27:28.901Z,85.96
2023-01-10T17:30:51.675Z,85.38
2023-01-10T17:34:07.118Z,84.48
2023-01-10T17:37:28.645Z,84.98
2023-01-10T17:40:51.716Z,84.94
2023-01-10T17:44:06.810Z,85.22
2023-01-10T17:47:28.658Z,86.18
2023-01-10T17:50:50.695Z,85.15
2023-01-10T17:54:05.960Z,86.09
2023-01-10T17:57:21.636Z,85.78
2023-01-10T18:00:43.668Z,85.89
2023-01-10T18:04:05.704Z,86.05
2023-01-10T18:07:20.785Z,85.18
2023-01-10T18:10:42.723Z,85.35
2023-01-10T18:13:57.757Z,84.78
2023-01-10T18:17:19.699Z,85.29
2023-01-10T18:20:41.665Z,85.12
2023-01-10T18:24:01.836Z,85.42
2023-01-10T18:27:23.629Z,85.41
2023-01-10T18:30:46.668Z,85.62
2023-01-10T18:34:08.756Z,85.30
2023-01-10T18:37:23.925Z,84.97
2023-01-10T18:40:45.662Z,84.99
2023-01-10T18:44:07.685Z,85.87
2023-01-10T18:47:22.768Z,86.70
2023-01-10T18:50:44.632Z,86.39
2023-01-10T18:54:06.626Z,86.38
2023-01-10T18:57:21.849Z,87.74
2023-01-10T19:00:43.620Z,87.79
2023-01-10T19:04:05.687Z,87.54
2023-01-10T19:07:20.922Z,86.91
2023-01-10T19:11:07.082Z,88.14
2023-01-10T19:14:25.604Z,87.23
2023-01-10T19:17:40.892Z,86.80
2023-01-10T19:21:05.644Z,87.34
2023-01-10T19:24:21.106Z,86.23
2023-01-10T19:27:42.603Z,87.43
2023-01-10T19:31:04.482Z,87.08
2023-01-10T19:34:26.606Z,86.17
2023-01-10T19:37:48.668Z,87.87
2023-01-10T19:41:03.780Z,87.29
2023-01-10T19:44:25.614Z,88.55
2023-01-10T19:47:40.746Z,87.87
2023-01-10T19:51:02.652Z,87.31
2023-01-10T19:54:18.682Z,89.65
2023-01-10T19:57:40.631Z,88.31
2023-01-10T20:01:02.544Z,89.73
2023-01-10T20:04:24.602Z,88.54
2023-01-10T20:07:46.623Z,90.48
2023-01-10T20:11:11.601Z,90.69
2023-01-10T20:14:34.609Z,89.75
2023-01-10T20:17:49.794Z,89.12
2023-01-10T20:21:12.625Z,89.10
2023-01-10T20:24:27.754Z,88.39
2023-01-10T20:27:42.570Z,88.59
2023-01-10T20:31:04.627Z,87.53
2023-01-10T20:34:27.637Z,87.77
2023-01-10T20:37:42.651Z,87.84
2023-01-10T20:41:08.571Z,87.60
2023-01-10T20:44:30.596Z,88.25
2023-01-10T20:47:45.951Z,87.75
2023-01-10T20:51:07.599Z,87.69
2023-01-10T20:54:29.597Z,87.12
2023-01-10T20:57:44.870Z,86.95
2023-01-10T21:01:06.580Z,86.63
2023-01-10T21:04:21.658Z,87.47
2023-01-10T21:07:43.595Z,87.14
2023-01-10T21:11:05.577Z,87.24
2023-01-10T21:14:27.561Z,86.31
2023-01-10T21:17:49.564Z,87.95
2023-01-10T21:21:11.580Z,88.90
2023-01-10T21:24:26.621Z,87.97
2023-01-10T21:27:48.574Z,86.52
2023-01-10T21:31:03.714Z,86.23
2023-01-10T21:34:25.589Z,85.96
2023-01-10T21:37:47.563Z,86.02
2023-01-10T21:41:12.010Z,85.90
2023-01-10T21:44:33.577Z,86.62
2023-01-10T21:47:55.524Z,86.90
2023-01-10T21:51:10.575Z,86.79
2023-01-10T21:54:32.526Z,87.58
2023-01-10T21:57:54.535Z,87.00
2023-01-10T22:01:16.684Z,87.18
2023-01-10T22:04:31.624Z,87.07
2023-01-10T22:07:53.486Z,86.52
2023-01-10T22:11:15.484Z,86.91
2023-01-10T22:14:37.495Z,86.80
2023-01-10T22:17:59.569Z,86.88
2023-01-10T22:21:15.633Z,86.33
2023-01-10T22:24:37.497Z,86.73
2023-01-10T22:27:59.553Z,87.05
2023-01-10T22:31:14.788Z,87.23
2023-01-10T22:34:36.467Z,87.06
2023-01-10T22:37:58.512Z,86.75
2023-01-10T22:41:15.761Z,87.51
2023-01-10T22:44:38.483Z,86.59
2023-01-10T22:47:53.731Z,86.84
2023-01-10T22:51:15.499Z,85.94
2023-01-10T22:54:37.518Z,86.42
2023-01-10T22:57:52.643Z,87.28
2023-01-10T23:01:14.490Z,87.44
2023-01-10T23:04:29.650Z,87.13
2023-01-10T23:07:51.525Z,86.06
2023-01-10T23:11:13.466Z,85.71
2023-01-10T23:14:35.529Z,85.98
2023-01-10T23:17:50.591Z,86.74
2023-01-10T23:21:12.513Z,87.40
2023-01-10T23:24:34.480Z,87.00
2023-01-10T23:27:49.720Z,87.02
2023-01-10T23:31:11.555Z,86.10
2023-01-10T23:34:26.684Z,87.46
2023-01-10T23:37:48.433Z,86.39
2023-01-10T23:41:03.713Z,86.54
2023-01-10T23:44:25.448Z,86.70
2023-01-10T23:47:47.479Z,86.39
2023-01-10T23:51:09.450Z,86.40
2023-01-10T23:54:24.646Z,87.65
2023-01-10T23:57:46.475Z,87.55
